Time;durP1;ratioP1;P1;durP2;ratioP2;P2;SDS_P1;SDS_P2;PMS_P1;PMS_P2;Temp;Humidity;BMP_temperature;BMP_pressure;BME280_temperature;BME280_humidity;BME280_pressure;Samples;Min_cycle;Max_cycle;Signal;HPM_P1;HPM_P2
2021/05/21 00:01:10;;;;;;;19.57;3.93;;;;;;;;;;4830815;28;20223;-87
2021/05/21 00:03:33;;;;;;;11.27;3.27;;;;;;;;;;4864366;28;20222;-85
2021/05/21 00:05:55;;;;;;;10.93;2.93;;;;;;;;;;4838995;28;20241;-84
2021/05/21 00:08:18;;;;;;;24.20;4.70;;;;;;;;;;4829646;28;20226;-85
2021/05/21 00:10:41;;;;;;;14.20;3.17;;;7.00;59.40;;;;;;4840712;28;20540;-85
2021/05/21 00:13:03;;;;;;;12.20;3.17;;;;;;;;;;4847278;28;20206;-86
2021/05/21 00:15:25;;;;;;;27.17;4.80;;;;;;;;;;4833575;28;20267;-86
2021/05/21 00:17:48;;;;;;;23.57;4.37;;;;;;;;;;4849559;28;20209;-87
2021/05/21 00:20:11;;;;;;;16.60;3.60;;;8.40;67.80;;;;;;4840174;28;20250;-87
2021/05/21 00:22:33;;;;;;;17.73;3.70;;;;;;;;;;4869443;28;20194;-85
2021/05/21 00:24:56;;;;;;;21.60;4.37;;;;;;;;;;4849899;28;20195;-86
2021/05/21 00:27:18;;;;;;;20.23;4.13;;;6.20;82.80;;;;;;4840815;28;20182;-85
2021/05/21 00:29:41;;;;;;;22.27;4.53;;;;;;;;;;4841940;28;20228;-85
2021/05/21 00:32:03;;;;;;;20.00;4.03;;;;;;;;;;4847049;28;20186;-83
2021/05/21 00:34:26;;;;;;;16.90;3.93;;;;;;;;;;4844440;28;20217;-85
2021/05/21 00:36:48;;;;;;;33.00;5.50;;;;;;;;;;4821191;28;20194;-86
2021/05/21 00:39:11;;;;;;;20.40;4.33;;;;;;;;;;4853067;28;20229;-86
2021/05/21 00:41:33;;;;;;;15.43;3.47;;;;;;;;;;4862472;28;20197;-86
2021/05/21 00:43:56;;;;;;;15.90;3.77;;;6.10;92.00;;;;;;4846524;28;20197;-86
2021/05/21 00:46:18;;;;;;;24.03;4.63;;;;;;;;;;4832165;28;20196;-85
2021/05/21 00:48:41;;;;;;;14.87;3.50;;;;;;;;;;4847972;28;20260;-85
2021/05/21 00:51:03;;;;;;;12.13;3.30;;;;;;;;;;4864717;28;20235;-85
2021/05/21 00:53:28;;;;;;;19.27;3.47;;;;;;;;;;4821751;28;20581;-86
2021/05/21 00:55:51;;;;;;;11.67;2.60;;;;;;;;;;4852098;28;20228;-85
2021/05/21 00:58:13;;;;;;;27.20;4.77;;;5.70;67.50;;;;;;4846773;28;20186;-85
2021/05/21 01:00:36;;;;;;;92.30;12.73;;;5.70;68.70;;;;;;4819716;28;20632;-85
2021/05/21 01:02:59;;;;;;;12.83;3.30;;;;;;;;;;4838805;28;20301;-86
2021/05/21 01:05:21;;;;;;;19.40;4.37;;;;;;;;;;4838130;28;20199;-84
2021/05/21 01:07:43;;;;;;;13.73;3.53;;;;;;;;;;4805881;28;20808;-87
2021/05/21 01:10:06;;;;;;;21.70;4.70;;;5.20;62.00;;;;;;4854843;28;20202;-86
2021/05/21 01:12:29;;;;;;;22.20;4.93;;;;;;;;;;4861714;28;20591;-86
2021/05/21 01:14:52;;;;;;;12.17;3.60;;;5.30;58.40;;;;;;4827858;28;20198;-86
2021/05/21 01:17:15;;;;;;;19.87;4.43;;;5.20;54.70;;;;;;4839782;28;20213;-87
2021/05/21 01:19:37;;;;;;;18.47;4.40;;;;;;;;;;4842687;28;20256;-82
2021/05/21 01:22:00;;;;;;;19.77;4.63;;;5.40;56.90;;;;;;4848036;28;20264;-85
2021/05/21 01:24:22;;;;;;;20.27;4.60;;;;;;;;;;4856032;28;20202;-85
2021/05/21 01:26:47;;;;;;;29.30;5.50;;;5.00;58.80;;;;;;4851507;28;20233;-86
2021/05/21 01:29:09;;;;;;;12.63;3.60;;;;;;;;;;4831382;28;20204;-84
2021/05/21 01:31:31;;;;;;;15.30;4.30;;;;;;;;;;4848237;28;20217;-87
2021/05/21 01:33:54;;;;;;;13.13;4.17;;;4.90;65.90;;;;;;4843208;28;20198;-85
2021/05/21 01:36:16;;;;;;;21.27;5.37;;;;;;;;;;4837981;28;20207;-85
2021/05/21 01:38:39;;;;;;;14.03;3.93;;;4.80;59.70;;;;;;4842258;28;20202;-86
2021/05/21 01:41:02;;;;;;;17.27;4.67;;;4.80;58.20;;;;;;4833956;28;20317;-87
2021/05/21 01:43:24;;;;;;;23.00;5.30;;;;;;;;;;4843007;28;20248;-85
2021/05/21 01:45:47;;;;;;;11.53;4.00;;;;;;;;;;4837846;28;20195;-86
2021/05/21 01:48:10;;;;;;;19.03;5.23;;;4.70;56.30;;;;;;4814594;28;20195;-85
2021/05/21 01:50:33;;;;;;;17.77;5.30;;;;;;;;;;4832464;28;20322;-86
2021/05/21 01:52:55;;;;;;;19.67;5.97;;;;;;;;;;4831734;28;20241;-82
2021/05/21 01:55:18;;;;;;;18.23;5.70;;;4.60;57.20;;;;;;4834286;28;20966;-84
2021/05/21 01:57:42;;;;;;;20.90;5.87;;;4.60;54.20;;;;;;4822530;28;20202;-87
2021/05/21 02:00:05;;;;;;;19.77;5.33;;;;;;;;;;4827514;28;20223;-86
2021/05/21 02:02:35;;;;;;;20.33;5.77;;;;;;;;;;4847457;28;20709;-87
2021/05/21 02:04:57;;;;;;;19.17;5.33;;;;;;;;;;4834332;28;20781;-87
2021/05/21 02:07:19;;;;;;;21.77;6.07;;;;;;;;;;4852341;28;20185;-80
2021/05/21 02:09:52;;;;;;;17.37;5.10;;;4.40;53.00;;;;;;4850247;28;20199;-86
2021/05/21 02:12:15;;;;;;;26.37;6.40;;;6.10;57.80;;;;;;4830309;28;20227;-86
2021/05/21 02:14:37;;;;;;;19.27;5.67;;;;;;;;;;4842381;28;20242;-86
2021/05/21 02:16:59;;;;;;;30.07;7.37;;;;;;;;;;4836504;28;20207;-85
2021/05/21 02:19:22;;;;;;;22.87;5.80;;;;;;;;;;4831075;28;20249;-85
2021/05/21 02:21:46;;;;;;;13.57;4.97;;;;;;;;;;4855664;28;20240;-87
2021/05/21 02:24:09;;;;;;;13.50;5.13;;;4.30;70.50;;;;;;4807310;28;20749;-84
2021/05/21 02:26:31;;;;;;;12.27;5.33;;;;;;;;;;4846740;28;20764;-87
2021/05/21 02:28:54;;;;;;;19.70;6.10;;;4.30;90.30;;;;;;4846782;28;20203;-88
2021/05/21 02:31:16;;;;;;;20.33;5.10;;;;;;;;;;4831254;28;20265;-88
2021/05/21 02:33:39;;;;;;;16.90;5.07;;;;;;;;;;4843440;28;20237;-85
2021/05/21 02:36:01;;;;;;;20.83;6.33;;;;;;;;;;4850845;28;20216;-89
2021/05/21 02:38:23;;;;;;;20.73;5.63;;;;;;;;;;4861619;28;20259;-87
2021/05/21 02:40:45;;;;;;;13.90;5.40;;;;;;;;;;4850346;28;20305;-88
2021/05/21 02:43:08;;;;;;;15.63;5.40;;;;;;;;;;4830926;28;20186;-87
2021/05/21 02:45:31;;;;;;;20.57;6.30;;;4.30;94.40;;;;;;4820829;28;20195;-87
2021/05/21 02:47:53;;;;;;;11.80;5.37;;;;;;;;;;4841838;28;20198;-87
2021/05/21 02:50:15;;;;;;;17.83;6.07;;;;;;;;;;4831913;28;20637;-86
2021/05/21 02:52:37;;;;;;;15.23;5.50;;;;;;;;;;4831557;28;20195;-87
2021/05/21 02:55:00;;;;;;;14.83;5.67;;;;;;;;;;4855501;28;20233;-86
2021/05/21 02:57:23;;;;;;;27.70;7.43;;;4.30;96.90;;;;;;4842301;28;20266;-87
2021/05/21 02:59:46;;;;;;;20.83;6.77;;;;;;;;;;4828007;28;20191;-87
2021/05/21 03:02:09;;;;;;;21.07;6.93;;;6.30;96.80;;;;;;4852898;28;20279;-89
2021/05/21 03:04:31;;;;;;;15.40;5.87;;;;;;;;;;4835818;28;20230;-86
2021/05/21 03:06:54;;;;;;;33.87;8.03;;;;;;;;;;4844444;28;20277;-85
2021/05/21 03:09:17;;;;;;;14.27;5.87;;;;;;;;;;4836224;28;20354;-87
2021/05/21 03:11:39;;;;;;;12.53;5.67;;;;;;;;;;4848921;28;20256;-87
2021/05/21 03:14:01;;;;;;;11.80;5.77;;;;;;;;;;4840937;28;20260;-88
2021/05/21 03:16:23;;;;;;;16.30;6.17;;;;;;;;;;4828278;28;20188;-86
2021/05/21 03:18:46;;;;;;;21.03;6.87;;;4.40;99.90;;;;;;4846718;28;20614;-88
2021/05/21 03:21:08;;;;;;;14.50;6.50;;;;;;;;;;4826673;28;20192;-88
2021/05/21 03:23:31;;;;;;;12.10;5.73;;;;;;;;;;4851945;28;20265;-88
2021/05/21 03:25:53;;;;;;;10.17;5.33;;;;;;;;;;4849389;28;20232;-89
2021/05/21 03:28:16;;;;;;;20.63;7.13;;;4.60;99.90;;;;;;4826965;28;20233;-88
2021/05/21 03:30:38;;;;;;;19.60;6.37;;;;;;;;;;4823909;28;20681;-88
2021/05/21 03:33:01;;;;;;;14.70;5.87;;;;;;;;;;4833545;28;20656;-88
2021/05/21 03:35:24;;;;;;;20.87;6.77;;;4.60;99.90;;;;;;4855862;28;20193;-88
2021/05/21 03:37:46;;;;;;;18.13;6.30;;;;;;;;;;4845261;28;20634;-86
2021/05/21 03:40:09;;;;;;;18.43;6.37;;;4.70;99.90;;;;;;4850240;28;20218;-89
2021/05/21 03:42:31;;;;;;;14.47;5.43;;;;;;;;;;4850957;28;20268;-87
2021/05/21 03:44:53;;;;;;;10.50;5.53;;;;;;;;;;4852022;28;20190;-86
2021/05/21 03:47:16;;;;;;;19.10;5.93;;;;;;;;;;4854765;28;20197;-88
2021/05/21 03:49:38;;;;;;;16.57;6.20;;;;;;;;;;4870083;28;20205;-88
2021/05/21 03:52:01;;;;;;;19.87;6.67;;;4.70;99.90;;;;;;4827032;28;20688;-87
2021/05/21 03:54:24;;;;;;;14.50;5.57;;;;;;;;;;4826456;28;20194;-84
2021/05/21 03:56:46;;;;;;;22.80;6.43;;;;;;;;;;4835612;28;20234;-79
2021/05/21 03:59:08;;;;;;;14.40;5.27;;;;;;;;;;4849978;28;20186;-88
2021/05/21 04:01:31;;;;;;;14.77;5.90;;;;;;;;;;4845783;28;20276;-86
2021/05/21 04:03:55;;;;;;;23.37;7.13;;;;;;;;;;4822132;28;20223;-87
2021/05/21 04:06:17;;;;;;;20.07;6.27;;;;;;;;;;4857603;28;20202;-88
2021/05/21 04:08:41;;;;;;;14.03;5.60;;;4.90;99.90;;;;;;4841834;28;20187;-88
2021/05/21 04:11:03;;;;;;;13.27;5.43;;;;;;;;;;4839089;28;20218;-87
2021/05/21 04:13:25;;;;;;;22.07;6.87;;;;;;;;;;4838666;28;20195;-89
2021/05/21 04:15:48;;;;;;;10.67;5.13;;;;;;;;;;4846124;28;21090;-87
2021/05/21 04:18:10;;;;;;;17.63;6.60;;;;;;;;;;4852360;28;20241;-86
2021/05/21 04:20:32;;;;;;;13.33;5.97;;;;;;;;;;4855565;28;20248;-90
2021/05/21 04:22:56;;;;;;;17.47;7.10;;;;;;;;;;4838379;28;20191;-89
2021/05/21 04:25:19;;;;;;;17.83;7.73;;;5.80;99.90;;;;;;4840914;28;20201;-90
2021/05/21 04:27:41;;;;;;;26.00;9.10;;;;;;;;;;4857851;28;20186;-90
2021/05/21 04:30:04;;;;;;;12.43;6.67;;;;;;;;;;4857783;28;20194;-84
2021/05/21 04:32:26;;;;;;;15.60;6.93;;;;;;;;;;4859760;28;20248;-89
2021/05/21 04:34:48;;;;;;;17.10;7.27;;;;;;;;;;4866995;28;20209;-86
2021/05/21 04:37:11;;;;;;;12.17;5.87;;;;;;;;;;4858366;28;20679;-87
2021/05/21 04:39:33;;;;;;;14.43;5.60;;;;;;;;;;4856806;28;20194;-85
2021/05/21 04:41:56;;;;;;;10.30;4.77;;;7.30;99.90;;;;;;4857177;28;20228;-88
2021/05/21 04:44:18;;;;;;;23.47;6.20;;;;;;;;;;4858060;28;20745;-80
2021/05/21 04:46:41;;;;;;;13.23;4.73;;;;;;;;;;4838752;28;20189;-84
2021/05/21 04:49:03;;;;;;;12.03;4.30;;;;;;;;;;4858100;28;20190;-87
2021/05/21 04:51:26;;;;;;;20.83;5.27;;;;;;;;;;4873270;28;20229;-83
2021/05/21 04:53:48;;;;;;;8.53;3.40;;;;;;;;;;4856995;28;20190;-91
2021/05/21 04:56:10;;;;;;;16.67;4.27;;;;;;;;;;4853695;28;20205;-84
2021/05/21 04:58:33;;;;;;;11.57;3.23;;;8.60;55.50;;;;;;4854331;28;20624;-87
2021/05/21 05:00:56;;;;;;;12.50;3.33;;;;;;;;;;4856040;28;20644;-88
2021/05/21 05:03:18;;;;;;;17.27;4.13;;;;;;;;;;4837162;28;20234;-84
2021/05/21 05:05:40;;;;;;;23.90;4.67;;;;;;;;;;4854168;28;20260;-86
2021/05/21 05:08:03;;;;;;;17.37;3.70;;;;;;;;;;4854176;28;20198;-88
2021/05/21 05:10:26;;;;;;;27.97;5.00;;;;;;;;;;4854599;28;20555;-86
2021/05/21 05:12:48;;;;;;;11.67;2.93;;;;;;;;;;4856828;28;20241;-82
2021/05/21 05:15:12;;;;;;;9.53;2.47;;;9.70;1.00;;;;;;4856713;28;20182;-84
2021/05/21 05:17:34;;;;;;;11.97;2.83;;;;;;;;;;4853487;28;20241;-86
2021/05/21 05:19:56;;;;;;;10.03;2.47;;;;;;;;;;4870912;28;20275;-84
2021/05/21 05:22:19;;;;;;;20.80;3.77;;;;;;;;;;4871826;28;20216;-83
2021/05/21 05:24:41;;;;;;;14.90;3.07;;;;;;;;;;4856108;28;20618;-85
2021/05/21 05:27:03;;;;;;;25.03;4.13;;;;;;;;;;4838414;28;20357;-85
2021/05/21 05:29:26;;;;;;;30.63;4.70;;;;;;;;;;4854606;28;20202;-84
2021/05/21 05:31:48;;;;;;;14.63;2.57;;;10.60;1.00;;;;;;4838386;28;20596;-83
2021/05/21 05:34:11;;;;;;;19.20;3.13;;;;;;;;;;4856304;28;20220;-88
2021/05/21 05:36:33;;;;;;;18.07;3.30;;;;;;;;;;4855032;28;20710;-89
2021/05/21 05:38:55;;;;;;;12.53;2.13;;;;;;;;;;4853624;28;20194;-86
2021/05/21 05:41:17;;;;;;;26.33;3.63;;;;;;;;;;4853275;28;20194;-86
2021/05/21 05:43:40;;;;;;;18.77;2.93;;;;;;;;;;4854148;28;20202;-81
2021/05/21 05:46:04;;;;;;;16.83;2.83;;;;;;;;;;4856099;28;20244;-82
2021/05/21 05:48:27;;;;;;;28.80;3.97;;;11.60;99.90;;;;;;4862391;28;20682;-85
2021/05/21 05:50:50;;;;;;;21.00;3.07;;;11.80;99.90;;;;;;4870572;28;20303;-83
2021/05/21 05:53:12;;;;;;;17.00;2.67;;;;;;;;;;4856374;28;20190;-86
2021/05/21 05:55:34;;;;;;;18.27;2.80;;;;;;;;;;4854777;28;20279;-87
2021/05/21 05:57:56;;;;;;;17.53;2.60;;;;;;;;;;4854636;28;20264;-82
2021/05/21 06:00:20;;;;;;;28.63;3.97;;;12.10;1.00;;;;;;4853491;28;20816;-87
2021/05/21 06:02:42;;;;;;;15.10;2.20;;;;;;;;;;4842524;28;20281;-84
2021/05/21 06:05:07;;;;;;;13.73;2.13;;;12.20;99.90;;;;;;4833638;28;20206;-83
2021/05/21 06:07:29;;;;;;;24.60;3.37;;;;;;;;;;4834700;28;20225;-85
2021/05/21 06:09:51;;;;;;;26.03;3.53;;;;;;;;;;4835172;28;20277;-81
2021/05/21 06:12:14;;;;;;;32.40;4.13;;;;;;;;;;4835843;28;20268;-83
2021/05/21 06:14:36;;;;;;;24.27;3.13;;;;;;;;;;4834582;28;20774;-84
2021/05/21 06:16:58;;;;;;;37.30;4.73;;;;;;;;;;4818594;28;20273;-85
2021/05/21 06:19:20;;;;;;;23.07;3.10;;;;;;;;;;4836438;28;20245;-80
2021/05/21 06:21:43;;;;;;;15.60;2.27;;;12.90;1.00;;;;;;4836896;28;20194;-83
2021/05/21 06:24:06;;;;;;;23.43;3.20;;;;;;;;;;4833472;28;20207;-82
2021/05/21 06:26:33;;;;;;;22.33;3.17;;;;;;;;;;4832149;28;20620;-80
2021/05/21 06:28:55;;;;;;;18.73;2.63;;;;;;;;;;4822375;28;20226;-79
2021/05/21 06:31:19;;;;;;;30.20;3.90;;;;;;;;;;4819967;28;20907;-82
2021/05/21 06:33:42;;;;;;;35.60;4.53;;;;;;;;;;4833742;28;20186;-84
2021/05/21 06:36:04;;;;;;;13.27;2.03;;;;;;;;;;4834716;28;20202;-86
2021/05/21 06:38:27;;;;;;;15.87;2.13;;;14.40;1.00;;;;;;4835140;28;20245;-86
2021/05/21 06:40:49;;;;;;;17.80;2.43;;;;;;;;;;4834367;28;20285;-78
2021/05/21 06:43:13;;;;;;;13.10;1.90;;;;;;;;;;4835596;28;20194;-78
2021/05/21 06:45:35;;;;;;;20.27;2.77;;;;;;;;;;4813960;28;20243;-81
2021/05/21 06:47:57;;;;;;;12.87;1.87;;;;;;;;;;4833984;28;20652;-79
2021/05/21 06:50:19;;;;;;;24.67;3.33;;;;;;;;;;4834442;28;20622;-81
2021/05/21 06:52:42;;;;;;;21.00;2.83;;;;;;;;;;4837843;28;20206;-80
2021/05/21 06:55:06;;;;;;;13.03;1.87;;;15.80;99.90;;;;;;4837674;28;20580;-80
2021/05/21 06:57:29;;;;;;;20.13;2.87;;;;;;;;;;4835258;28;20225;-83
2021/05/21 06:59:51;;;;;;;13.70;2.20;;;;;;;;;;4819071;28;20238;-77
2021/05/21 07:02:13;;;;;;;12.73;2.13;;;;;;;;;;4835356;28;20238;-81
2021/05/21 07:04:35;;;;;;;9.60;1.67;;;;;;;;;;4838703;28;20371;-79
2021/05/21 07:06:58;;;;;;;24.83;4.17;;;;;;;;;;4819581;28;20563;-81
2021/05/21 07:09:20;;;;;;;12.87;2.20;;;;;;;;;;4837741;28;20546;-85
2021/05/21 07:11:43;;;;;;;12.67;2.10;;;16.20;99.90;;;;;;4837931;28;20785;-80
2021/05/21 07:14:08;;;;;;;10.00;1.87;;;;;;;;;;4837228;28;20313;-87
2021/05/21 07:16:31;;;;;;;10.63;1.87;;;;;;;;;;4805278;28;20188;-79
2021/05/21 07:18:53;;;;;;;7.70;1.47;;;;;;;;;;4819963;28;20195;-80
2021/05/21 07:21:16;;;;;;;10.13;2.03;;;;;;;;;;4839033;28;20191;-87
2021/05/21 07:23:38;;;;;;;8.30;1.70;;;;;;;;;;4833862;28;20266;-80
2021/05/21 07:26:00;;;;;;;12.63;2.40;;;;;;;;;;4835487;28;20191;-82
2021/05/21 07:28:24;;;;;;;15.77;2.97;;;16.50;99.90;;;;;;4837061;28;20245;-80
2021/05/21 07:30:47;;;;;;;8.27;1.63;;;;;;;;;;4838514;28;20225;-89
2021/05/21 07:33:09;;;;;;;7.10;1.53;;;;;;;;;;4838096;28;20254;-83
2021/05/21 07:35:31;;;;;;;7.60;1.60;;;;;;;;;;4839122;28;20248;-82
2021/05/21 07:37:54;;;;;;;7.83;1.70;;;;;;;;;;4837189;28;20214;-80
2021/05/21 07:40:18;;;;;;;13.87;2.67;;;;;;;;;;4837941;28;20186;-79
2021/05/21 07:42:40;;;;;;;9.57;1.90;;;;;;;;;;4837685;28;20869;-84
2021/05/21 07:45:03;;;;;;;6.40;1.47;;;16.10;99.90;;;;;;4837276;28;20800;-80
2021/05/21 07:47:26;;;;;;;11.00;2.20;;;;;;;;;;4830005;28;20186;-84
2021/05/21 07:49:48;;;;;;;9.17;2.03;;;;;;;;;;4836940;28;20202;-79
2021/05/21 07:52:13;;;;;;;7.33;1.57;;;;;;;;;;4837145;28;21134;-88
2021/05/21 07:54:35;;;;;;;7.17;1.43;;;;;;;;;;4839110;28;20876;-82
2021/05/21 07:56:58;;;;;;;17.83;3.57;;;;;;;;;;4837502;28;20217;-82
2021/05/21 07:59:20;;;;;;;12.07;2.47;;;;;;;;;;4838073;28;20195;-85
2021/05/21 08:01:43;;;;;;;8.27;1.77;;;16.80;99.90;;;;;;4830406;28;20226;-81
2021/05/21 08:04:05;;;;;;;9.03;1.83;;;;;;;;;;4835032;28;20631;-81
2021/05/21 08:06:28;;;;;;;9.17;1.87;;;;;;;;;;4835095;28;20187;-83
2021/05/21 08:08:50;;;;;;;8.10;1.73;;;;;;;;;;4837894;28;20245;-78
2021/05/21 08:11:12;;;;;;;7.27;1.47;;;;;;;;;;4838935;28;20272;-84
2021/05/21 08:13:34;;;;;;;6.77;1.43;;;;;;;;;;4837031;28;20199;-85
2021/05/21 08:30:00;;;;;;;13.40;1.80;;;18.00;99.90;;;;;;4834199;28;20813;-82
2021/05/21 08:32:22;;;;;;;24.33;3.40;;;;;;;;;;4831453;28;20209;-77
2021/05/21 08:34:44;;;;;;;23.40;3.50;;;;;;;;;;4833660;28;20267;-75
2021/05/21 08:37:06;;;;;;;18.27;2.70;;;;;;;;;;4833509;28;20226;-79
2021/05/21 08:39:29;;;;;;;10.13;1.60;;;;;;;;;;4830050;28;20196;-81
2021/05/21 08:41:53;;;;;;;7.67;1.20;;;18.20;99.90;;;;;;4830935;28;20187;-78
2021/05/21 08:44:18;;;;;;;18.27;2.77;;;18.20;99.90;;;;;;4820386;28;20620;-81
2021/05/21 08:46:41;;;;;;;6.70;1.00;;;18.30;99.90;;;;;;4844685;28;20207;-83
2021/05/21 08:49:04;;;;;;;14.03;2.10;;;18.30;99.90;;;;;;4827766;28;20219;-79
2021/05/21 08:51:27;;;;;;;10.97;1.67;;;18.40;99.90;;;;;;4826294;28;20191;-80
2021/05/21 08:53:49;;;;;;;14.57;2.27;;;;;;;;;;4828592;28;20244;-79
2021/05/21 08:56:12;;;;;;;23.93;3.50;;;;;;;;;;4829282;28;20571;-81
2021/05/21 08:58:35;;;;;;;12.60;1.90;;;;;;;;;;4828820;28;20194;-82
2021/05/21 09:00:57;;;;;;;9.87;1.60;;;;;;;;;;4827912;28;20195;-79
2021/05/21 09:03:22;;;;;;;10.47;1.87;;;19.20;99.90;;;;;;4929159;28;20252;-86
2021/05/21 09:06:01;;;;;;;11.83;2.10;;;19.90;99.90;;;;;;4929727;28;20192;-91
2021/05/21 09:08:35;;;;;;;38.07;5.17;;;21.20;99.90;;;;;;4920769;28;20222;-84
2021/05/21 09:10:58;;;;;;;17.00;2.20;;;;;;;;;;4930205;28;20665;-85
2021/05/21 09:13:21;;;;;;;18.33;2.73;;;;;;;;;;4929103;28;20910;-86
2021/05/21 09:15:43;;;;;;;6.57;1.00;;;;;;;;;;4929971;28;20188;-86
2021/05/21 09:18:08;;;;;;;17.10;2.60;;;;;;;;;;4927392;28;20587;-81
2021/05/21 09:20:32;;;;;;;10.13;1.77;;;27.20;99.90;;;;;;4920233;28;20191;-85
2021/05/21 09:23:05;;;;;;;4.77;0.87;;;28.00;99.90;;;;;;4921206;28;20235;-76
2021/05/21 09:25:39;;;;;;;10.53;1.53;;;28.60;99.90;;;;;;4912596;28;20601;-82
2021/05/21 09:28:02;;;;;;;14.00;3.17;;;;;;;;;;4894328;28;20228;-78
2021/05/21 09:30:24;;;;;;;23.77;3.00;;;;;;;;;;4912238;28;20208;-85
2021/05/21 09:33:01;;;;;;;245.00;222.80;;;31.20;99.90;;;;;;4901336;28;20196;-80
2021/05/21 09:35:24;;;;;;;140.30;130.20;;;;;;;;;;4905930;28;20864;-80
2021/05/21 09:37:50;;;;;;;133.03;123.43;;;30.30;99.90;;;;;;4881500;28;20318;-80
2021/05/21 09:40:20;;;;;;;143.93;130.57;;;30.90;99.90;;;;;;4903720;28;20188;-81
2021/05/21 09:42:54;;;;;;;272.80;250.33;;;30.80;99.90;;;;;;4909133;28;20211;-82
2021/05/21 09:45:22;;;;;;;264.27;243.23;;;30.70;99.90;;;;;;4904884;28;20217;-80
2021/05/21 09:47:49;;;;;;;282.33;258.13;;;31.80;99.90;;;;;;4908674;28;20576;-85
2021/05/21 09:50:11;;;;;;;466.50;315.43;;;32.70;99.90;;;;;;4894045;28;20215;-84
2021/05/21 09:52:44;;;;;;;416.93;326.50;;;31.90;99.90;;;;;;4898539;28;20207;-82
2021/05/21 09:55:08;;;;;;;355.03;318.97;;;32.40;99.90;;;;;;4896308;28;20254;-87
2021/05/21 09:57:31;;;;;;;423.75;334.17;;;;;;;;;;4911288;28;20192;-88
2021/05/21 09:59:55;;;;;;;456.90;330.73;;;34.80;99.90;;;;;;4886982;28;20618;-83
2021/05/21 10:02:21;;;;;;;488.60;354.97;;;;;;;;;;4854631;28;20761;-78
2021/05/21 10:04:43;;;;;;;340.42;308.90;;;;;;;;;;4802674;28;20206;-84
2021/05/21 10:07:05;;;;;;;284.17;259.63;;;;;;;;;;4808298;28;20183;-88
2021/05/21 10:53:41;;;;;;;455.85;401.42;;;39.40;99.90;;;;;;4842717;27;860761;-79
2021/05/21 10:56:04;;;;;;;452.98;384.27;;;38.40;99.90;;;;;;4860837;28;20678;-81
2021/05/21 10:58:29;;;;;;;467.80;420.23;;;39.10;99.90;;;;;;4828427;28;20753;-79
2021/05/21 11:01:14;;;;;;;444.45;397.40;;;38.20;99.90;;;;;;4841232;28;20195;-84
2021/05/21 11:04:09;;;;;;;472.80;408.55;;;37.50;99.90;;;;;;4839518;28;20562;-80
2021/05/21 11:06:32;;;;;;;458.13;396.30;;;38.80;99.90;;;;;;4816159;28;20191;-80
2021/05/21 11:08:59;;;;;;;460.05;389.50;;;39.00;99.90;;;;;;4845442;28;20225;-87
2021/05/21 11:11:21;;;;;;;445.20;396.35;;;;;;;;;;4843151;28;20211;-86
2021/05/21 11:13:44;;;;;;;453.73;404.63;;;;;;;;;;4843682;28;20186;-83
2021/05/21 11:16:12;;;;;;;427.40;382.85;;;37.10;99.90;;;;;;4843474;28;20656;-84
2021/05/21 11:18:34;;;;;;;437.33;367.98;;;;;;;;;;4845638;28;20188;-86
2021/05/21 11:21:03;;;;;;;467.75;382.58;;;36.00;99.90;;;;;;4839793;28;20229;-81
2021/05/21 11:23:28;;;;;;;454.48;360.80;;;35.80;99.90;;;;;;4832159;28;20199;-79
2021/05/21 11:26:21;;;;;;;449.23;359.50;;;35.90;99.90;;;;;;4796217;28;20740;-84
2021/05/21 11:28:45;;;;;;;449.40;358.73;;;35.90;99.90;;;;;;4839129;28;20319;-81
2021/05/21 11:31:09;;;;;;;373.17;339.58;;;35.50;99.90;;;;;;4848808;28;20190;-83
2021/05/21 11:33:31;;;;;;;163.57;150.88;;;;;;;;;;4822233;28;20611;-91
2021/05/21 11:35:54;;;;;;;29.33;6.32;;;34.30;1.00;;;;;;4822201;28;20184;-84
2021/05/21 11:38:23;;;;;;;120.82;110.75;;;32.90;99.90;;;;;;4848253;28;20233;-80
2021/05/21 11:40:46;;;;;;;207.73;193.32;;;32.00;99.90;;;;;;4841397;28;20241;-85
2021/05/21 11:43:09;;;;;;;235.80;218.50;;;32.10;99.90;;;;;;4830441;28;20225;-83
2021/05/21 11:45:32;;;;;;;125.07;116.72;;;;;;;;;;4830903;28;20207;-87
2021/05/21 11:47:55;;;;;;;92.40;84.03;;;33.10;99.90;;;;;;4831327;28;20203;-83
2021/05/21 11:50:29;;;;;;;46.33;27.60;;;33.60;99.90;;;;;;4814633;28;20196;-78
2021/05/21 11:52:54;;;;;;;25.63;3.70;;;;;;;;;;4820011;28;20231;-79
2021/05/21 11:55:19;;;;;;;54.28;6.65;;;;;;;;;;4807771;28;20238;-79
2021/05/21 11:57:41;;;;;;;20.92;3.60;;;30.70;99.90;;;;;;4818290;28;20775;-78
2021/05/21 12:00:06;;;;;;;27.35;4.35;;;31.40;99.90;;;;;;4817903;28;20222;-83
2021/05/21 12:02:34;;;;;;;20.65;2.90;;;;;;;;;;4805711;28;20254;-82
2021/05/21 12:04:57;;;;;;;44.22;5.45;;;;;;;;;;4811981;28;20231;-86
2021/05/21 12:07:22;;;;;;;25.17;3.20;;;33.30;99.90;;;;;;4800356;28;20204;-84
2021/05/21 12:09:53;;;;;;;13.88;1.83;;;33.50;99.90;;;;;;4791383;28;20204;-82
2021/05/21 12:12:16;;;;;;;25.90;3.15;;;;;;;;;;4786528;28;20294;-79
2021/05/21 12:14:39;;;;;;;13.07;1.67;;;;;;;;;;4811699;28;20187;-81
2021/05/21 12:17:02;;;;;;;22.45;2.88;;;29.60;1.00;;;;;;4800912;28;20199;-87
2021/05/21 12:19:26;;;;;;;20.70;2.60;;;30.00;99.90;;;;;;4816400;28;20210;-75
2021/05/21 12:21:50;;;;;;;26.60;3.27;;;30.00;99.90;;;;;;4800741;28;20561;-77
2021/05/21 12:24:15;;;;;;;14.80;1.90;;;30.40;99.90;;;;;;4788074;28;20208;-80
2021/05/21 12:26:39;;;;;;;19.13;2.43;;;30.50;99.90;;;;;;4806091;28;20250;-78
2021/05/21 12:29:06;;;;;;;22.90;3.03;;;30.60;99.90;;;;;;4783364;28;20838;-82
2021/05/21 12:31:30;;;;;;;15.23;1.97;;;30.70;99.90;;;;;;4783458;28;20272;-81
2021/05/21 12:33:53;;;;;;;32.38;4.00;;;31.40;99.90;;;;;;4782486;28;20223;-79
2021/05/21 12:36:17;;;;;;;19.92;2.70;;;32.30;99.90;;;;;;4807490;28;20235;-79
2021/05/21 12:38:39;;;;;;;15.10;2.00;;;33.20;99.90;;;;;;4784571;28;20197;-78
2021/05/21 12:41:09;;;;;;;28.00;3.55;;;33.70;99.90;;;;;;4816799;28;20627;-81
2021/05/21 12:43:32;;;;;;;12.57;1.65;;;33.70;99.90;;;;;;4795884;28;20612;-80
2021/05/21 12:46:03;;;;;;;24.10;3.08;;;33.60;1.00;;;;;;4784493;28;20199;-88
2021/05/21 12:48:33;;;;;;;27.00;3.47;;;33.50;1.00;;;;;;4784477;28;20196;-87
2021/05/21 12:50:56;;;;;;;25.88;3.25;;;32.40;99.90;;;;;;4801194;28;20295;-78
2021/05/21 12:53:19;;;;;;;20.95;2.72;;;31.70;99.90;;;;;;4786622;28;20235;-78
2021/05/21 12:55:45;;;;;;;24.40;3.25;;;31.20;1.00;;;;;;4783772;28;20658;-78
2021/05/21 12:58:08;;;;;;;7.05;1.08;;;;;;;;;;4771716;28;20367;-80
2021/05/21 13:00:30;;;;;;;63.72;7.80;;;;;;;;;;4781258;28;20200;-81
2021/05/21 13:02:53;;;;;;;23.58;3.08;;;31.20;99.90;;;;;;4796885;28;20227;-77
2021/05/21 13:05:17;;;;;;;41.63;5.33;;;31.20;99.90;;;;;;4795082;28;20243;-80
2021/05/21 13:07:42;;;;;;;19.05;2.53;;;31.00;1.00;;;;;;4791897;28;20683;-83
2021/05/21 13:10:07;;;;;;;32.72;4.18;;;31.20;99.90;;;;;;4788455;28;20180;-81
2021/05/21 13:12:30;;;;;;;9.68;1.33;;;30.40;99.90;;;;;;4822973;28;20234;-82
2021/05/21 13:14:52;;;;;;;14.40;1.97;;;;;;;;;;4798806;28;20540;-81
2021/05/21 13:17:15;;;;;;;11.17;1.53;;;;;;;;;;4797184;28;20203;-84
2021/05/21 13:19:43;;;;;;;15.63;2.13;;;28.20;99.90;;;;;;4782360;28;20195;-90
2021/05/21 13:22:14;;;;;;;23.43;3.13;;;27.40;99.90;;;;;;4796789;28;20202;-85
2021/05/21 13:24:41;;;;;;;8.87;1.30;;;26.70;99.90;;;;;;4806821;28;20735;-80
2021/05/21 13:27:03;;;;;;;24.47;3.30;;;;;;;;;;4788088;28;20307;-84
2021/05/21 13:29:25;;;;;;;11.83;1.63;;;;;;;;;;4792658;28;20180;-80
2021/05/21 13:31:49;;;;;;;19.13;2.63;;;25.90;99.90;;;;;;4788710;28;20278;-83
2021/05/21 13:34:11;;;;;;;16.43;2.27;;;;;;;;;;4789039;28;20188;-78
2021/05/21 13:36:33;;;;;;;9.23;1.30;;;;;;;;;;4791787;28;20187;-78
2021/05/21 13:38:56;;;;;;;23.43;3.20;;;;;;;;;;4802913;28;20210;-81
2021/05/21 13:41:18;;;;;;;10.90;1.57;;;25.00;99.90;;;;;;4779871;28;20284;-76
2021/05/21 13:43:41;;;;;;;11.03;1.63;;;;;;;;;;4789834;28;20254;-82
2021/05/21 13:46:03;;;;;;;23.83;3.27;;;;;;;;;;4804744;28;20195;-79
2021/05/21 13:48:25;;;;;;;26.87;3.60;;;;;;;;;;4784961;28;20199;-79
2021/05/21 13:50:48;;;;;;;9.73;1.40;;;;;;;;;;4793284;28;20270;-82
2021/05/21 13:53:10;;;;;;;19.87;2.73;;;;;;;;;;4806279;28;20299;-80
2021/05/21 13:55:32;;;;;;;11.53;1.63;;;;;;;;;;4825890;28;20203;-78
2021/05/21 13:57:55;;;;;;;20.87;2.80;;;26.00;99.90;;;;;;4799945;28;20247;-87
2021/05/21 14:00:18;;;;;;;15.43;2.13;;;26.10;1.00;;;;;;4799910;28;20200;-76
2021/05/21 14:02:41;;;;;;;11.03;1.57;;;;;;;;;;4828972;28;20241;-79
2021/05/21 14:05:03;;;;;;;26.67;3.47;;;;;;;;;;4817340;28;20203;-82
2021/05/21 14:07:25;;;;;;;17.00;2.33;;;;;;;;;;4837083;28;20185;-81
2021/05/21 14:09:48;;;;;;;21.70;3.00;;;;;;;;;;4801855;28;20879;-78
2021/05/21 14:12:11;;;;;;;12.43;1.77;;;;;;;;;;4801315;28;20281;-78
2021/05/21 14:14:34;;;;;;;17.20;2.37;;;25.00;99.90;;;;;;4818464;28;20233;-83
2021/05/21 14:16:58;;;;;;;17.20;2.40;;;;;;;;;;4799287;28;20210;-78
2021/05/21 14:19:21;;;;;;;15.40;2.13;;;;;;;;;;4827443;28;20721;-80
2021/05/21 14:21:44;;;;;;;13.03;1.80;;;;;;;;;;4826741;28;20185;-77